Plain City, OH (43064)

3:30 PM EDT on August 23, 2014 (GMT -0400)
Village at Homestead | Change Station
CLOSE
Current Station
Personal Weather Station
Location: Hilliard, OH
Elevation: 932 ft
Nearby Weather Stations

Elev 932 ft 40.04 °N, 83.18 °W | Updated 6 seconds ago

Mostly Cloudy
Mostly Cloudy
88.2 °F
Feels Like 94 °F
N
4.7
Wind Variable Wind from SE
Gusts 7.3 mph

Today
High -- | Low -- °F
--% Chance of Precip.
Yesterday
High -- | Low -- °F
Precip. -- in
6:52 AM 8:18 PM
Waning Crescent, 3% visible
Pressure 30.03 in
Visibility 10.0 miles
Clouds Scattered Clouds 3100 ft
Scattered Clouds 4400 ft
Mostly Cloudy 5000 ft
Heat Index 94 °F
Dew Point 71 °F
Humidity 57%
Rainfall 0.00 in
Snow Depth Not available.
UV 5 out of 12
Pollen 10.20 out of 12
Ozone Good
PM2.5 Good
Flu Activity Not available.
METAR KMRT 231913Z AUTO 00000KT 10SM SCT031 SCT044 BKN050 28/20 A3003 RMK AO2 T02820196

More Conditions Fewer Conditions

Pressure 30.03 in
Visibility 10.0 miles
Clouds Scattered Clouds 3100 ft
Scattered Clouds 4400 ft
Mostly Cloudy 5000 ft
Heat Index 94 °F
Dew Point 71 °F
Humidity 57%
Rainfall 0.00 in
Snow Depth Not available.
UV 5 out of 12
Pollen 10.20 out of 12
Ozone Good
PM2.5 Good
Flu Activity Not available.
METAR KMRT 231913Z AUTO 00000KT 10SM SCT031 SCT044 BKN050 28/20 A3003 RMK AO2 T02820196

More Conditions Fewer Conditions

10-Day Weather Forecast

Almanac

Astronomy

Aug. 23, 2014 Rise Set
Actual Time 6:52 AM EDT 8:18 PM EDT
Civil Twilight 6:23 AM EDT 8:46 PM EDT
Nautical Twilight 5:49 AM EDT 9:20 PM EDT
Astronomical Twilight 5:13 AM EDT 9:56 PM EDT
Moon 5:07 AM EDT 7:02 PM EDT
Length of Visible Light 14h 23m
Length of Day
13h 26m
Tomorrow will be 2m 27s shorter.
Waning Crescent, 3% of the Moon is Illuminated
Today
Waning Crescent
Aug 25
New
Sep 2
First Quarter
Sep 8
Full
Sep 15
Last Quarter

Today's Extremes

State Highs State Lows

Community

WunderPhotos

Upload Photos

1,746,583 photos uploaded!

WunderBlogs® & News

Nearby

Air Quality

  Air Quality AQ Index Pollutant
Yesterday Good
PM2.5
Yesterday Good
OZONE
Current Good
PM2.5
Current Good
OZONE
Saturday Moderate
OZONE
Saturday Moderate
PM2.5
Sunday Moderate
OZONE
Sunday Moderate
PM2.5
Monday Moderate
OZONE
Monday Moderate
PM2.5
Tuesday Moderate
OZONE
Tuesday Moderate
PM2.5
Wednesday Moderate
OZONE
Wednesday Moderate
PM2.5
Thursday Moderate
OZONE
Thursday Moderate
PM2.5

Snow Depth

Station Depth Elevation
No new snow has been reported.

Earthquake Activity

City Distance Mag. Time & Date
No recent earthquake activity has been reported nearby.
Minimum magnitude displayed is 2.5.

Coastal Water Temperatures

Place Temperature
No Stations Reporting

Nearby Weather Stations